Аэропорт: Основа. Харьков

ICAO: UKHH

METAR:
2019/05/26 14:00
UKHH 261400Z 02005MPS 9999 VCTS BKN044CB 19/13 Q1007 R25/290079 TEMPO 33009G16MPS 1100 TSRAGR SQ SCT003 BKN007 BKN020CB
METAR:
2019/05/26 12:24
TAF UKHH 261110Z 2612/2712 31005MPS 9999 BKN020 SCT030CB 
      TEMPO 2612/2617 33009G16MPS 1100 TSRAGR SQ SCT003 BKN007 BKN020CB 
      TEMPO 2617/2704 2100 -SHRA BR SCT007 BKN020CB PROB40 
      TEMPO 2617/2621 -TSRA